sensor_id;sensor_type;location;lat;lon;timestamp;pressure;altitude;pressure_sealevel;temperature;humidity
19600;BME280;9947;57.722;12.012;2023-07-13T00:02:09;100202.44;;;14.19;100.00
19600;BME280;9947;57.722;12.012;2023-07-13T00:04:38;100202.59;;;14.18;100.00
19600;BME280;9947;57.722;12.012;2023-07-13T00:07:07;100209.19;;;14.15;100.00
19600;BME280;9947;57.722;12.012;2023-07-13T00:09:34;100204.22;;;14.11;100.00
19600;BME280;9947;57.722;12.012;2023-07-13T00:12:03;100203.22;;;14.12;100.00
19600;BME280;9947;57.722;12.012;2023-07-13T00:14:30;100207.25;;;14.08;100.00
19600;BME280;9947;57.722;12.012;2023-07-13T00:17:06;100200.19;;;14.15;100.00
19600;BME280;9947;57.722;12.012;2023-07-13T00:19:34;100201.91;;;14.16;100.00
19600;BME280;9947;57.722;12.012;2023-07-13T00:22:02;100197.00;;;14.19;100.00
19600;BME280;9947;57.722;12.012;2023-07-13T00:24:31;100201.91;;;14.16;100.00
19600;BME280;9947;57.722;12.012;2023-07-13T00:26:59;100201.75;;;14.17;100.00
19600;BME280;9947;57.722;12.012;2023-07-13T00:29:29;100205.00;;;14.21;100.00
19600;BME280;9947;57.722;12.012;2023-07-13T00:31:58;100202.53;;;14.28;100.00
19600;BME280;9947;57.722;12.012;2023-07-13T00:34:27;100199.66;;;14.29;100.00
19600;BME280;9947;57.722;12.012;2023-07-13T00:36:55;100213.97;;;14.31;100.00
19600;BME280;9947;57.722;12.012;2023-07-13T00:39:25;100203.22;;;14.30;100.00
19600;BME280;9947;57.722;12.012;2023-07-13T00:42:01;100207.81;;;14.29;100.00
19600;BME280;9947;57.722;12.012;2023-07-13T00:44:30;100196.84;;;14.21;100.00
19600;BME280;9947;57.722;12.012;2023-07-13T00:46:57;100204.47;;;14.17;100.00
19600;BME280;9947;57.722;12.012;2023-07-13T00:49:26;100204.94;;;14.13;100.00
19600;BME280;9947;57.722;12.012;2023-07-13T00:51:57;100204.94;;;14.13;100.00
19600;BME280;9947;57.722;12.012;2023-07-13T00:54:29;100207.50;;;14.14;100.00
19600;BME280;9947;57.722;12.012;2023-07-13T00:57:03;100208.66;;;14.12;100.00
19600;BME280;9947;57.722;12.012;2023-07-13T00:59:31;100203.69;;;14.07;100.00
19600;BME280;9947;57.722;12.012;2023-07-13T01:02:00;100203.13;;;14.04;100.00
19600;BME280;9947;57.722;12.012;2023-07-13T01:04:27;100205.97;;;14.02;100.00
19600;BME280;9947;57.722;12.012;2023-07-13T01:06:56;100206.84;;;14.03;100.00
19600;BME280;9947;57.722;12.012;2023-07-13T01:09:26;100208.16;;;13.99;100.00
19600;BME280;9947;57.722;12.012;2023-07-13T01:11:53;100202.72;;;13.99;100.00
19600;BME280;9947;57.722;12.012;2023-07-13T01:14:24;100210.53;;;14.11;100.00
19600;BME280;9947;57.722;12.012;2023-07-13T01:16:52;100204.38;;;14.09;100.00
19600;BME280;9947;57.722;12.012;2023-07-13T01:19:32;100212.00;;;14.06;100.00
19600;BME280;9947;57.722;12.012;2023-07-13T01:22:05;100213.28;;;14.02;100.00
19600;BME280;9947;57.722;12.012;2023-07-13T01:24:36;100203.56;;;13.99;100.00
19600;BME280;9947;57.722;12.012;2023-07-13T01:27:06;100208.69;;;14.02;100.00
19600;BME280;9947;57.722;12.012;2023-07-13T01:29:35;100208.28;;;14.07;100.00
19600;BME280;9947;57.722;12.012;2023-07-13T01:32:08;100203.53;;;14.09;100.00
19600;BME280;9947;57.722;12.012;2023-07-13T01:34:36;100199.81;;;14.10;100.00
19600;BME280;9947;57.722;12.012;2023-07-13T01:37:05;100207.34;;;14.16;100.00
19600;BME280;9947;57.722;12.012;2023-07-13T01:39:33;100202.44;;;14.19;100.00
19600;BME280;9947;57.722;12.012;2023-07-13T01:42:00;100207.56;;;14.23;100.00
19600;BME280;9947;57.722;12.012;2023-07-13T01:44:30;100204.69;;;14.24;100.00
19600;BME280;9947;57.722;12.012;2023-07-13T01:46:58;100203.16;;;14.22;100.00
19600;BME280;9947;57.722;12.012;2023-07-13T01:49:27;100203.53;;;14.27;100.00
19600;BME280;9947;57.722;12.012;2023-07-13T01:51:54;100204.81;;;14.32;100.00
19600;BME280;9947;57.722;12.012;2023-07-13T01:54:22;100204.66;;;14.34;100.00
19600;BME280;9947;57.722;12.012;2023-07-13T01:56:50;100204.19;;;14.38;100.00
19600;BME280;9947;57.722;12.012;2023-07-13T01:59:19;100202.84;;;14.42;100.00
19600;BME280;9947;57.722;12.012;2023-07-13T02:01:47;100200.13;;;14.42;100.00
19600;BME280;9947;57.722;12.012;2023-07-13T02:04:16;100211.91;;;14.43;100.00
19600;BME280;9947;57.722;12.012;2023-07-13T02:06:43;100213.28;;;14.47;100.00
19600;BME280;9947;57.722;12.012;2023-07-13T02:09:10;100201.03;;;14.43;100.00
19600;BME280;9947;57.722;12.012;2023-07-13T02:11:45;100199.59;;;14.39;100.00
19600;BME280;9947;57.722;12.012;2023-07-13T02:14:12;100203.47;;;14.36;100.00
19600;BME280;9947;57.722;12.012;2023-07-13T02:16:41;100208.38;;;14.33;100.00
19600;BME280;9947;57.722;12.012;2023-07-13T02:19:08;100207.81;;;14.29;100.00
19600;BME280;9947;57.722;12.012;2023-07-13T02:21:35;100215.25;;;14.27;100.00
19600;BME280;9947;57.722;12.012;2023-07-13T02:24:02;100214.25;;;14.28;100.00
19600;BME280;9947;57.722;12.012;2023-07-13T02:26:34;100217.81;;;14.29;100.00
19600;BME280;9947;57.722;12.012;2023-07-13T02:29:04;100224.91;;;14.22;100.00
19600;BME280;9947;57.722;12.012;2023-07-13T02:31:38;100213.09;;;14.13;100.00
19600;BME280;9947;57.722;12.012;2023-07-13T02:34:05;100216.50;;;14.15;100.00
19600;BME280;9947;57.722;12.012;2023-07-13T02:36:33;100221.56;;;14.10;100.00
19600;BME280;9947;57.722;12.012;2023-07-13T02:39:03;100223.72;;;14.06;100.00
19600;BME280;9947;57.722;12.012;2023-07-13T02:41:31;100232.00;;;14.05;100.00
19600;BME280;9947;57.722;12.012;2023-07-13T02:43:59;100229.44;;;14.03;100.00
19600;BME280;9947;57.722;12.012;2023-07-13T02:46:31;100230.59;;;14.01;100.00
19600;BME280;9947;57.722;12.012;2023-07-13T02:49:00;100225.31;;;13.99;100.00
19600;BME280;9947;57.722;12.012;2023-07-13T02:51:29;100224.63;;;13.97;100.00
19600;BME280;9947;57.722;12.012;2023-07-13T02:53:58;100229.34;;;13.95;100.00
19600;BME280;9947;57.722;12.012;2023-07-13T02:56:34;100222.91;;;13.96;100.00
19600;BME280;9947;57.722;12.012;2023-07-13T02:59:03;100218.63;;;13.94;100.00
19600;BME280;9947;57.722;12.012;2023-07-13T03:04:05;100214.91;;;13.95;100.00
19600;BME280;9947;57.722;12.012;2023-07-13T03:07:04;100216.78;;;13.94;100.00
19600;BME280;9947;57.722;12.012;2023-07-13T03:09:36;100211.34;;;13.94;100.00
19600;BME280;9947;57.722;12.012;2023-07-13T03:12:05;100216.63;;;13.96;100.00
19600;BME280;9947;57.722;12.012;2023-07-13T03:14:32;100216.63;;;13.96;100.00
19600;BME280;9947;57.722;12.012;2023-07-13T03:16:59;100216.31;;;13.99;100.00
19600;BME280;9947;57.722;12.012;2023-07-13T03:19:27;100218.03;;;14.00;100.00
19600;BME280;9947;57.722;12.012;2023-07-13T03:21:55;100221.84;;;14.07;100.00
19600;BME280;9947;57.722;12.012;2023-07-13T03:24:45;100223.97;;;14.13;100.00
19600;BME280;9947;57.722;12.012;2023-07-13T03:27:12;100221.78;;;14.16;100.00
19600;BME280;9947;57.722;12.012;2023-07-13T03:29:42;100226.38;;;14.16;100.00
19600;BME280;9947;57.722;12.012;2023-07-13T03:32:11;100222.94;;;14.14;100.00
19600;BME280;9947;57.722;12.012;2023-07-13T03:34:41;100227.38;;;14.15;100.00
19600;BME280;9947;57.722;12.012;2023-07-13T03:37:13;100229.78;;;14.18;100.00
19600;BME280;9947;57.722;12.012;2023-07-13T03:39:40;100224.75;;;14.23;100.00
19600;BME280;9947;57.722;12.012;2023-07-13T03:42:08;100232.28;;;14.29;100.00
19600;BME280;9947;57.722;12.012;2023-07-13T03:44:38;100226.47;;;14.42;100.00
19600;BME280;9947;57.722;12.012;2023-07-13T03:47:06;100231.25;;;14.58;100.00
19600;BME280;9947;57.722;12.012;2023-07-13T03:49:34;100228.19;;;14.96;100.00
19600;BME280;9947;57.722;12.012;2023-07-13T03:52:03;100236.38;;;15.48;100.00
19600;BME280;9947;57.722;12.012;2023-07-13T03:54:37;100231.91;;;15.65;100.00
19600;BME280;9947;57.722;12.012;2023-07-13T03:57:05;100233.69;;;15.56;100.00
19600;BME280;9947;57.722;12.012;2023-07-13T03:59:34;100225.78;;;15.71;100.00
19600;BME280;9947;57.722;12.012;2023-07-13T04:02:02;100223.41;;;15.68;100.00
19600;BME280;9947;57.722;12.012;2023-07-13T04:04:32;100217.63;;;15.71;100.00
19600;BME280;9947;57.722;12.012;2023-07-13T04:07:02;100219.00;;;15.49;100.00
19600;BME280;9947;57.722;12.012;2023-07-13T04:09:29;100216.47;;;15.56;100.00
19600;BME280;9947;57.722;12.012;2023-07-13T04:11:56;100214.25;;;15.51;100.00
19600;BME280;9947;57.722;12.012;2023-07-13T04:14:23;100219.34;;;15.46;100.00
19600;BME280;9947;57.722;12.012;2023-07-13T04:16:50;100212.00;;;15.47;100.00
19600;BME280;9947;57.722;12.012;2023-07-13T04:19:19;100212.50;;;15.42;100.00
19600;BME280;9947;57.722;12.012;2023-07-13T04:21:46;100219.13;;;15.39;100.00
19600;BME280;9947;57.722;12.012;2023-07-13T04:24:15;100211.75;;;15.32;100.00
19600;BME280;9947;57.722;12.012;2023-07-13T04:26:42;100221.09;;;15.29;100.00
19600;BME280;9947;57.722;12.012;2023-07-13T04:29:09;100214.63;;;15.30;100.00
19600;BME280;9947;57.722;12.012;2023-07-13T04:31:36;100226.69;;;15.54;100.00
19600;BME280;9947;57.722;12.012;2023-07-13T04:34:03;100222.25;;;15.53;100.00
19600;BME280;9947;57.722;12.012;2023-07-13T04:36:37;100224.91;;;15.62;100.00
19600;BME280;9947;57.722;12.012;2023-07-13T04:39:05;100229.28;;;16.48;100.00
19600;BME280;9947;57.722;12.012;2023-07-13T04:41:34;100229.25;;;18.40;100.00
19600;BME280;9947;57.722;12.012;2023-07-13T04:44:01;100226.38;;;19.25;100.00
19600;BME280;9947;57.722;12.012;2023-07-13T04:46:29;100223.25;;;19.65;100.00
19600;BME280;9947;57.722;12.012;2023-07-13T04:48:56;100227.50;;;20.84;100.00
19600;BME280;9947;57.722;12.012;2023-07-13T04:51:24;100223.84;;;19.90;100.00
19600;BME280;9947;57.722;12.012;2023-07-13T04:53:52;100217.75;;;20.10;100.00
19600;BME280;9947;57.722;12.012;2023-07-13T04:56:23;100220.34;;;20.69;100.00
19600;BME280;9947;57.722;12.012;2023-07-13T04:58:53;100231.53;;;20.67;100.00
19600;BME280;9947;57.722;12.012;2023-07-13T05:01:21;100227.03;;;21.23;100.00
19600;BME280;9947;57.722;12.012;2023-07-13T05:03:52;100231.44;;;21.46;100.00
19600;BME280;9947;57.722;12.012;2023-07-13T05:06:21;100231.72;;;21.30;100.00
19600;BME280;9947;57.722;12.012;2023-07-13T05:08:48;100221.72;;;21.01;100.00
19600;BME280;9947;57.722;12.012;2023-07-13T05:11:15;100219.75;;;21.72;100.00
19600;BME280;9947;57.722;12.012;2023-07-13T05:13:53;100226.47;;;20.85;100.00
19600;BME280;9947;57.722;12.012;2023-07-13T05:16:22;100228.47;;;19.75;100.00
19600;BME280;9947;57.722;12.012;2023-07-13T05:18:49;100223.19;;;20.39;100.00
19600;BME280;9947;57.722;12.012;2023-07-13T05:21:17;100232.44;;;20.74;100.00
19600;BME280;9947;57.722;12.012;2023-07-13T05:23:44;100235.44;;;21.22;100.00
19600;BME280;9947;57.722;12.012;2023-07-13T05:26:12;100239.34;;;20.85;100.00
19600;BME280;9947;57.722;12.012;2023-07-13T05:28:40;100233.00;;;20.12;100.00
19600;BME280;9947;57.722;12.012;2023-07-13T05:31:11;100240.66;;;20.53;100.00
19600;BME280;9947;57.722;12.012;2023-07-13T05:33:38;100241.69;;;20.67;100.00
19600;BME280;9947;57.722;12.012;2023-07-13T05:36:07;100251.53;;;20.10;100.00
19600;BME280;9947;57.722;12.012;2023-07-13T05:38:43;100241.84;;;20.44;100.00
19600;BME280;9947;57.722;12.012;2023-07-13T05:41:16;100246.81;;;19.60;100.00
19600;BME280;9947;57.722;12.012;2023-07-13T05:43:44;100239.81;;;19.57;100.00
19600;BME280;9947;57.722;12.012;2023-07-13T05:46:17;100244.38;;;20.45;100.00
19600;BME280;9947;57.722;12.012;2023-07-13T05:48:51;100245.03;;;20.83;100.00
19600;BME280;9947;57.722;12.012;2023-07-13T05:51:22;100240.75;;;20.09;100.00
19600;BME280;9947;57.722;12.012;2023-07-13T05:53:50;100250.25;;;20.57;100.00
19600;BME280;9947;57.722;12.012;2023-07-13T05:56:17;100244.75;;;20.78;100.00
19600;BME280;9947;57.722;12.012;2023-07-13T05:59:06;100244.44;;;21.09;100.00
19600;BME280;9947;57.722;12.012;2023-07-13T06:01:34;100237.16;;;20.80;100.00
19600;BME280;9947;57.722;12.012;2023-07-13T06:04:01;100239.06;;;19.78;100.00
19600;BME280;9947;57.722;12.012;2023-07-13T06:06:28;100231.50;;;18.67;100.00
19600;BME280;9947;57.722;12.012;2023-07-13T06:08:56;100231.81;;;18.10;100.00
19600;BME280;9947;57.722;12.012;2023-07-13T06:11:28;100230.03;;;17.86;100.00
19600;BME280;9947;57.722;12.012;2023-07-13T06:13:56;100236.47;;;17.46;100.00
19600;BME280;9947;57.722;12.012;2023-07-13T06:16:23;100237.69;;;17.44;100.00
19600;BME280;9947;57.722;12.012;2023-07-13T06:18:53;100243.00;;;17.21;100.00
19600;BME280;9947;57.722;12.012;2023-07-13T06:21:24;100242.28;;;17.35;100.00
19600;BME280;9947;57.722;12.012;2023-07-13T06:23:53;100242.59;;;17.40;100.00
19600;BME280;9947;57.722;12.012;2023-07-13T06:26:22;100245.53;;;17.31;100.00
19600;BME280;9947;57.722;12.012;2023-07-13T06:28:49;100249.09;;;17.39;100.00
19600;BME280;9947;57.722;12.012;2023-07-13T06:31:16;100241.59;;;17.33;100.00
19600;BME280;9947;57.722;12.012;2023-07-13T06:33:43;100239.56;;;17.27;100.00
19600;BME280;9947;57.722;12.012;2023-07-13T06:36:16;100237.88;;;17.26;100.00
19600;BME280;9947;57.722;12.012;2023-07-13T06:38:44;100233.25;;;17.26;100.00
19600;BME280;9947;57.722;12.012;2023-07-13T06:41:12;100242.09;;;17.37;100.00
19600;BME280;9947;57.722;12.012;2023-07-13T06:43:40;100244.19;;;17.10;100.00
19600;BME280;9947;57.722;12.012;2023-07-13T06:46:08;100249.25;;;16.48;100.00
19600;BME280;9947;57.722;12.012;2023-07-13T06:48:36;100255.38;;;16.42;100.00
19600;BME280;9947;57.722;12.012;2023-07-13T06:51:03;100254.13;;;16.37;100.00
19600;BME280;9947;57.722;12.012;2023-07-13T06:53:32;100255.81;;;16.21;100.00
19600;BME280;9947;57.722;12.012;2023-07-13T06:55:59;100259.75;;;16.35;100.00
19600;BME280;9947;57.722;12.012;2023-07-13T06:58:27;100257.94;;;16.52;100.00
19600;BME280;9947;57.722;12.012;2023-07-13T07:00:55;100256.50;;;16.98;100.00
19600;BME280;9947;57.722;12.012;2023-07-13T07:03:22;100263.16;;;17.20;100.00
19600;BME280;9947;57.722;12.012;2023-07-13T07:05:49;100266.38;;;17.15;100.00
19600;BME280;9947;57.722;12.012;2023-07-13T07:08:16;100258.00;;;17.17;100.00
19600;BME280;9947;57.722;12.012;2023-07-13T07:10:47;100258.03;;;17.01;100.00
19600;BME280;9947;57.722;12.012;2023-07-13T07:13:19;100262.63;;;17.00;100.00
19600;BME280;9947;57.722;12.012;2023-07-13T07:15:47;100264.81;;;17.37;100.00
19600;BME280;9947;57.722;12.012;2023-07-13T07:18:16;100264.94;;;17.76;100.00
19600;BME280;9947;57.722;12.012;2023-07-13T07:20:44;100262.75;;;17.72;100.00
19600;BME280;9947;57.722;12.012;2023-07-13T07:23:13;100269.47;;;17.20;100.00
19600;BME280;9947;57.722;12.012;2023-07-13T07:25:40;100281.06;;;16.98;100.00
19600;BME280;9947;57.722;12.012;2023-07-13T07:28:12;100276.63;;;17.05;100.00
19600;BME280;9947;57.722;12.012;2023-07-13T07:30:41;100273.53;;;16.84;100.00
19600;BME280;9947;57.722;12.012;2023-07-13T07:33:11;100278.47;;;16.88;100.00
19600;BME280;9947;57.722;12.012;2023-07-13T07:35:38;100274.91;;;16.80;100.00
19600;BME280;9947;57.722;12.012;2023-07-13T07:38:05;100267.84;;;16.61;100.00
19600;BME280;9947;57.722;12.012;2023-07-13T07:40:36;100283.19;;;16.54;100.00
19600;BME280;9947;57.722;12.012;2023-07-13T07:43:06;100281.28;;;16.46;100.00
19600;BME280;9947;57.722;12.012;2023-07-13T07:45:36;100281.25;;;16.38;100.00
19600;BME280;9947;57.722;12.012;2023-07-13T07:48:06;100278.91;;;16.01;100.00
19600;BME280;9947;57.722;12.012;2023-07-13T07:50:35;100269.28;;;16.15;100.00
19600;BME280;9947;57.722;12.012;2023-07-13T07:53:04;100283.63;;;17.00;100.00
19600;BME280;9947;57.722;12.012;2023-07-13T07:55:35;100277.41;;;17.63;100.00
19600;BME280;9947;57.722;12.012;2023-07-13T07:58:02;100270.84;;;18.04;100.00
19600;BME280;9947;57.722;12.012;2023-07-13T08:00:30;100270.97;;;18.11;100.00
19600;BME280;9947;57.722;12.012;2023-07-13T08:02:59;100282.22;;;18.55;100.00
19600;BME280;9947;57.722;12.012;2023-07-13T08:05:35;100280.88;;;19.05;100.00
19600;BME280;9947;57.722;12.012;2023-07-13T08:08:10;100276.19;;;18.91;100.00
19600;BME280;9947;57.722;12.012;2023-07-13T08:10:41;100278.34;;;18.41;100.00
19600;BME280;9947;57.722;12.012;2023-07-13T08:13:11;100277.06;;;18.29;100.00
19600;BME280;9947;57.722;12.012;2023-07-13T08:15:37;100279.09;;;19.12;100.00
19600;BME280;9947;57.722;12.012;2023-07-13T08:18:07;100283.28;;;19.23;100.00
19600;BME280;9947;57.722;12.012;2023-07-13T08:20:38;100288.84;;;18.92;100.00
19600;BME280;9947;57.722;12.012;2023-07-13T08:23:06;100285.56;;;18.34;100.00
19600;BME280;9947;57.722;12.012;2023-07-13T08:25:36;100296.66;;;18.02;100.00
19600;BME280;9947;57.722;12.012;2023-07-13T08:28:04;100293.66;;;18.28;100.00
19600;BME280;9947;57.722;12.012;2023-07-13T08:30:31;100300.50;;;18.63;100.00
19600;BME280;9947;57.722;12.012;2023-07-13T08:32:59;100287.88;;;18.54;100.00
19600;BME280;9947;57.722;12.012;2023-07-13T08:35:28;100289.88;;;18.91;100.00
19600;BME280;9947;57.722;12.012;2023-07-13T08:37:55;100284.09;;;19.46;100.00
19600;BME280;9947;57.722;12.012;2023-07-13T08:40:27;100294.19;;;19.08;100.00
19600;BME280;9947;57.722;12.012;2023-07-13T08:42:57;100297.88;;;19.00;100.00
19600;BME280;9947;57.722;12.012;2023-07-13T08:45:30;100296.97;;;19.23;100.00
19600;BME280;9947;57.722;12.012;2023-07-13T08:48:02;100302.50;;;19.00;100.00
19600;BME280;9947;57.722;12.012;2023-07-13T08:50:35;100296.56;;;19.34;100.00
19600;BME280;9947;57.722;12.012;2023-07-13T08:53:11;100297.53;;;19.18;100.00
19600;BME280;9947;57.722;12.012;2023-07-13T08:55:41;100290.63;;;19.83;100.00
19600;BME280;9947;57.722;12.012;2023-07-13T08:58:11;100295.50;;;20.02;100.00
19600;BME280;9947;57.722;12.012;2023-07-13T09:00:48;100301.56;;;19.45;100.00
19600;BME280;9947;57.722;12.012;2023-07-13T09:03:20;100297.72;;;19.92;100.00
19600;BME280;9947;57.722;12.012;2023-07-13T09:05:54;100292.31;;;19.98;100.00
19600;BME280;9947;57.722;12.012;2023-07-13T09:08:46;100287.56;;;20.22;100.00
19600;BME280;9947;57.722;12.012;2023-07-13T09:11:28;100290.69;;;19.75;100.00
19600;BME280;9947;57.722;12.012;2023-07-13T09:14:26;100288.16;;;19.50;100.00
19600;BME280;9947;57.722;12.012;2023-07-13T09:17:00;100288.53;;;19.47;100.00
19600;BME280;9947;57.722;12.012;2023-07-13T09:19:32;100303.75;;;19.50;100.00
19600;BME280;9947;57.722;12.012;2023-07-13T09:22:07;100302.44;;;19.46;100.00
19600;BME280;9947;57.722;12.012;2023-07-13T09:24:45;100305.03;;;19.01;100.00
19600;BME280;9947;57.722;12.012;2023-07-13T09:27:19;100302.03;;;18.65;100.00
19600;BME280;9947;57.722;12.012;2023-07-13T09:29:57;100307.56;;;18.49;100.00
19600;BME280;9947;57.722;12.012;2023-07-13T09:32:26;100300.88;;;18.52;100.00
19600;BME280;9947;57.722;12.012;2023-07-13T09:34:54;100312.06;;;18.73;100.00
19600;BME280;9947;57.722;12.012;2023-07-13T09:37:30;100306.75;;;19.63;100.00
19600;BME280;9947;57.722;12.012;2023-07-13T09:40:02;100310.06;;;19.73;100.00
19600;BME280;9947;57.722;12.012;2023-07-13T09:42:32;100313.00;;;19.49;100.00
19600;BME280;9947;57.722;12.012;2023-07-13T09:45:26;100308.28;;;19.42;100.00
19600;BME280;9947;57.722;12.012;2023-07-13T09:47:59;100312.72;;;19.66;100.00
19600;BME280;9947;57.722;12.012;2023-07-13T09:50:27;100318.78;;;19.39;100.00
19600;BME280;9947;57.722;12.012;2023-07-13T09:53:09;100316.03;;;19.77;100.00
19600;BME280;9947;57.722;12.012;2023-07-13T09:55:45;100329.88;;;20.13;100.00
19600;BME280;9947;57.722;12.012;2023-07-13T09:58:17;100323.72;;;19.96;100.00
19600;BME280;9947;57.722;12.012;2023-07-13T10:00:55;100319.47;;;19.79;100.00
19600;BME280;9947;57.722;12.012;2023-07-13T10:03:27;100320.78;;;19.22;100.00
19600;BME280;9947;57.722;12.012;2023-07-13T10:06:03;100325.81;;;18.57;100.00
19600;BME280;9947;57.722;12.012;2023-07-13T10:08:35;100318.09;;;18.29;100.00
19600;BME280;9947;57.722;12.012;2023-07-13T10:11:10;100321.50;;;17.76;100.00
19600;BME280;9947;57.722;12.012;2023-07-13T10:13:41;100314.00;;;17.53;100.00
19600;BME280;9947;57.722;12.012;2023-07-13T10:16:09;100330.59;;;17.44;100.00
19600;BME280;9947;57.722;12.012;2023-07-13T10:18:41;100314.19;;;18.15;100.00
19600;BME280;9947;57.722;12.012;2023-07-13T10:21:15;100319.03;;;19.29;100.00
19600;BME280;9947;57.722;12.012;2023-07-13T10:23:51;100322.19;;;19.93;100.00
19600;BME280;9947;57.722;12.012;2023-07-13T10:26:26;100321.59;;;19.54;100.00
19600;BME280;9947;57.722;12.012;2023-07-13T10:28:59;100325.59;;;19.20;100.00
19600;BME280;9947;57.722;12.012;2023-07-13T10:31:30;100323.91;;;18.65;100.00
19600;BME280;9947;57.722;12.012;2023-07-13T10:34:03;100323.56;;;18.68;100.00
19600;BME280;9947;57.722;12.012;2023-07-13T10:36:37;100312.06;;;18.73;100.00
19600;BME280;9947;57.722;12.012;2023-07-13T10:39:15;100325.78;;;18.96;100.00
19600;BME280;9947;57.722;12.012;2023-07-13T10:41:44;100327.44;;;18.82;100.00
19600;BME280;9947;57.722;12.012;2023-07-13T10:44:24;100336.25;;;19.15;100.00
19600;BME280;9947;57.722;12.012;2023-07-13T10:46:59;100334.84;;;19.19;100.00
19600;BME280;9947;57.722;12.012;2023-07-13T10:49:29;100325.38;;;19.07;100.00
19600;BME280;9947;57.722;12.012;2023-07-13T10:52:02;100330.38;;;19.03;100.00
19600;BME280;9947;57.722;12.012;2023-07-13T10:54:42;100320.28;;;18.96;100.00
19600;BME280;9947;57.722;12.012;2023-07-13T10:57:16;100322.34;;;19.02;100.00
19600;BME280;9947;57.722;12.012;2023-07-13T11:00:15;100327.00;;;19.39;100.00
19600;BME280;9947;57.722;12.012;2023-07-13T11:02:43;100323.59;;;19.37;100.00
19600;BME280;9947;57.722;12.012;2023-07-13T11:05:28;100323.63;;;19.89;100.00
19600;BME280;9947;57.722;12.012;2023-07-13T11:08:11;100320.75;;;19.45;100.00
19600;BME280;9947;57.722;12.012;2023-07-13T11:10:50;100318.69;;;19.99;100.00
19600;BME280;9947;57.722;12.012;2023-07-13T11:16:44;100326.19;;;19.91;100.00
19600;BME280;9947;57.722;12.012;2023-07-13T11:22:41;100329.53;;;19.40;100.00
19600;BME280;9947;57.722;12.012;2023-07-13T11:25:28;100331.16;;;19.73;100.00
19600;BME280;9947;57.722;12.012;2023-07-13T11:28:13;100335.53;;;19.82;100.00
19600;BME280;9947;57.722;12.012;2023-07-13T11:30:47;100340.47;;;19.86;100.00
19600;BME280;9947;57.722;12.012;2023-07-13T11:33:17;100338.03;;;20.06;100.00
19600;BME280;9947;57.722;12.012;2023-07-13T11:35:50;100345.38;;;19.91;100.00
19600;BME280;9947;57.722;12.012;2023-07-13T11:38:30;100343.28;;;19.93;100.00
19600;BME280;9947;57.722;12.012;2023-07-13T11:41:01;100343.88;;;20.18;100.00
19600;BME280;9947;57.722;12.012;2023-07-13T11:43:32;100351.34;;;19.80;100.00
19600;BME280;9947;57.722;12.012;2023-07-13T11:46:13;100361.41;;;19.41;100.00
19600;BME280;9947;57.722;12.012;2023-07-13T11:48:45;100356.53;;;19.89;100.00
19600;BME280;9947;57.722;12.012;2023-07-13T11:51:20;100359.13;;;19.45;100.00
19600;BME280;9947;57.722;12.012;2023-07-13T11:53:50;100359.28;;;19.52;100.00
19600;BME280;9947;57.722;12.012;2023-07-13T11:56:18;100357.78;;;19.26;100.00
19600;BME280;9947;57.722;12.012;2023-07-13T11:58:50;100359.47;;;18.73;100.00
19600;BME280;9947;57.722;12.012;2023-07-13T12:01:23;100347.53;;;18.66;100.00
19600;BME280;9947;57.722;12.012;2023-07-13T12:03:51;100347.16;;;18.69;100.00
19600;BME280;9947;57.722;12.012;2023-07-13T12:06:28;100351.16;;;18.90;100.00
19600;BME280;9947;57.722;12.012;2023-07-13T12:08:59;100357.94;;;19.02;100.00
19600;BME280;9947;57.722;12.012;2023-07-13T12:11:29;100356.34;;;18.85;100.00
19600;BME280;9947;57.722;12.012;2023-07-13T12:14:00;100359.47;;;19.04;100.00
19600;BME280;9947;57.722;12.012;2023-07-13T12:16:31;100361.94;;;18.91;100.00
19600;BME280;9947;57.722;12.012;2023-07-13T12:19:03;100362.75;;;19.00;100.00
19600;BME280;9947;57.722;12.012;2023-07-13T12:21:33;100366.66;;;19.28;100.00
19600;BME280;9947;57.722;12.012;2023-07-13T12:24:02;100367.16;;;19.55;100.00
19600;BME280;9947;57.722;12.012;2023-07-13T12:26:31;100356.28;;;19.16;100.00
19600;BME280;9947;57.722;12.012;2023-07-13T12:29:05;100368.25;;;18.92;100.00
19600;BME280;9947;57.722;12.012;2023-07-13T12:31:36;100371.44;;;19.49;100.00
19600;BME280;9947;57.722;12.012;2023-07-13T12:34:09;100359.38;;;19.96;100.00
19600;BME280;9947;57.722;12.012;2023-07-13T12:36:41;100358.94;;;20.07;100.00
19600;BME280;9947;57.722;12.012;2023-07-13T12:39:17;100358.44;;;20.03;100.00
19600;BME280;9947;57.722;12.012;2023-07-13T12:41:46;100365.19;;;20.16;100.00
19600;BME280;9947;57.722;12.012;2023-07-13T12:44:18;100367.16;;;20.22;100.00
19600;BME280;9947;57.722;12.012;2023-07-13T12:46:57;100373.50;;;20.22;100.00
19600;BME280;9947;57.722;12.012;2023-07-13T12:49:31;100365.66;;;20.05;100.00
19600;BME280;9947;57.722;12.012;2023-07-13T12:52:03;100369.13;;;19.84;100.00
19600;BME280;9947;57.722;12.012;2023-07-13T12:54:31;100372.47;;;19.48;100.00
19600;BME280;9947;57.722;12.012;2023-07-13T12:56:59;100369.72;;;19.56;100.00
19600;BME280;9947;57.722;12.012;2023-07-13T12:59:32;100381.38;;;19.50;100.00
19600;BME280;9947;57.722;12.012;2023-07-13T13:02:21;100373.88;;;19.44;100.00
19600;BME280;9947;57.722;12.012;2023-07-13T13:04:49;100370.53;;;19.11;100.00
19600;BME280;9947;57.722;12.012;2023-07-13T13:07:17;100370.91;;;19.31;100.00
19600;BME280;9947;57.722;12.012;2023-07-13T13:09:45;100374.19;;;19.49;100.00